Latest Coastal Weather Observations for Swanbourne

IDW60701

Issued at 5:33 pm WST Thursday 23 February 2017 (issued every 10 minutes, with the page automatically refreshed every 10 minutes)

About coastal observations | Map of coastal stations | Coastal observations for WA | Marine services | Other Formats
Station Details ID: 009215 Name: SWANBOURNE Lat: -31.96 Lon: 115.76 Height: 40.96 m
Data from the previous 72 hours. | See also: Recent months at Swanbourne
Date/Time
WST
Temp
°C
Wind Pressure Rain since
9am
mm
Weather Cloud Vis
km
Sea
Height
m
Swell
Dir  Spd
kts
Gust
kts
hPa Trend Height
m
Period
s
Dir
23/05:30pm 23.6 SSW 10 15 - - 0.0 - - - - - - -
23/05:00pm 23.7 SSW 11 16 - - 0.0 - - - - - - -
23/04:30pm 24.2 SSW 10 16 - - 0.0 - - - - - - -
23/04:00pm 23.6 SSW 13 17 - - 0.0 - - - - - - -
23/03:30pm 23.8 SSW 13 17 - - 0.0 - - - - - - -
23/03:00pm 24.1 SSW 12 18 - - 0.0 - - - - - - -
23/02:30pm 23.8 SSW 12 16 - - 0.0 - - - - - - -
23/02:00pm 24.1 SSW 12 16 - - 0.0 - - - - - - -
23/01:30pm 25.1 SSW 11 16 - - 0.0 - - - - - - -
23/01:00pm 24.7 SSW 12 17 - - 0.0 - - - - - - -
23/12:30pm 25.7 SSW 10 14 - - 0.0 - - - - - - -
23/12:00pm 27.9 E 5 11 - - 0.0 - - - - - - -
23/11:30am 27.6 ESE 4 11 - - 0.0 - - - - - - -
23/11:00am 26.6 E 4 7 - - 0.0 - - - - - - -
23/10:30am 25.6 ENE 6 8 - - 0.0 - - - - - - -
23/10:00am 24.7 ENE 7 11 - - 0.0 - - - - - - -
23/09:30am 23.5 E 9 14 - - 0.0 - - - - - - -
23/09:00am 22.2 E 10 15 - - 0.0 - - - - - - -
23/08:30am 20.5 E 6 9 - - 0.0 - - - - - - -
23/08:00am 18.9 ESE 6 9 - - 0.0 - - - - - - -
23/07:30am 17.4 ESE 5 8 - - 0.0 - - - - - - -
23/07:00am 15.9 ESE 5 7 - - 0.0 - - - - - - -
23/06:30am 14.7 ESE 6 8 - - 0.0 - - - - - - -
23/06:00am 14.2 SE 5 7 - - 0.0 - - - - - - -
23/05:30am 14.3 SE 4 6 - - 0.0 - - - - - - -
23/05:00am 14.4 SE 5 7 - - 0.0 - - - - - - -
23/04:30am 14.6 ESE 5 7 - - 0.0 - - - - - - -
23/04:00am 15.0 ESE 5 6 - - 0.0 - - - - - - -
23/03:30am 15.2 SE 3 5 - - 0.0 - - - - - - -
23/03:00am 15.4 SE 5 6 - - 0.0 - - - - - - -
23/02:30am 15.7 SE 5 7 - - 0.0 - - - - - - -
23/02:00am 15.8 SE 5 7 - - 0.0 - - - - - - -
23/01:30am 16.1 SE 4 7 - - 0.0 - - - - - - -
23/01:00am 16.2 SE 5 8 - - 0.0 - - - - - - -
23/12:30am 16.2 SE 4 7 - - 0.0 - - - - - - -
23/12:00am 16.5 SE 5 7 - - 0.0 - - - - - - -
 
Date/Time
WST
Temp
°C
Wind Pressure Rain since
9am
mm
Weather Cloud Vis
km
Sea
Height
m
Swell
Dir  Spd
kts
Gust
kts
hPa Trend Height
m
Period
s
Dir
22/11:30pm 17.1 SSE 6 9 - - 0.0 - - - - - - -
22/11:00pm 17.4 SSE 6 10 - - 0.0 - - - - - - -
22/10:30pm 17.5 SSE 6 9 - - 0.0 - - - - - - -
22/10:00pm 18.1 SSE 7 10 - - 0.0 - - - - - - -
22/09:30pm 18.1 SSE 6 11 - - 0.0 - - - - - - -
22/09:00pm 18.4 S 8 13 - - 0.0 - - - - - - -
22/08:30pm 18.5 S 9 15 - - 0.0 - - - - - - -
22/08:00pm 18.7 S 10 16 - - 0.0 - - - - - - -
22/07:30pm 18.7 S 11 15 - - 0.0 - - - - - - -
22/07:00pm 18.8 SSW 12 16 - - 0.0 - - - - - - -
22/06:30pm 19.2 SSW 10 15 - - 0.0 - - - - - - -
22/06:00pm 19.8 SSW 11 18 - - 0.0 - - - - - - -
22/05:30pm 20.4 SSW 12 16 - - 0.0 - - - - - - -
22/05:00pm 20.7 SSW 12 18 - - 0.0 - - - - - - -
22/04:30pm 20.9 SSW 13 18 - - 0.0 - - - - - - -
22/04:00pm 21.3 SSW 12 18 - - 0.0 - - - - - - -
22/03:30pm 20.9 SSW 13 18 - - 0.0 - - - - - - -
22/03:00pm 21.2 SSW 13 18 - - 0.0 - - - - - - -
22/02:30pm 21.3 SW 12 18 - - 0.0 - - - - - - -
22/02:00pm 21.7 SW 11 16 - - 0.0 - - - - - - -
22/01:30pm 21.4 SW 10 16 - - 0.0 - - - - - - -
22/01:00pm 21.6 SW 10 15 - - 0.0 - - - - - - -
22/12:30pm 21.3 SW 9 14 - - 0.0 - - - - - - -
22/12:00pm 21.5 SW 9 14 - - 0.0 - - - - - - -
22/11:30am 21.2 SW 9 12 - - 0.0 - - - - - - -
22/11:00am 21.4 SSE 4 8 - - 0.0 - - - - - - -
22/10:30am 19.8 SSE 5 11 - - 0.0 - - - - - - -
22/10:00am 19.4 SSE 5 10 - - 0.0 - - - - - - -
22/09:30am 18.5 ESE 5 9 - - 0.0 - - - - - - -
22/09:00am 18.2 E 5 9 - - 0.0 - - - - - - -
22/08:30am 17.3 E 5 7 - - 0.0 - - - - - - -
22/08:00am 16.1 E 4 6 - - 0.0 - - - - - - -
22/07:30am 15.1 E 6 8 - - 0.0 - - - - - - -
22/07:00am 14.1 ENE 5 6 - - 0.0 - - - - - - -
22/06:30am 13.4 ENE 4 5 - - 0.0 - - - - - - -
22/06:00am 13.0 E 5 6 - - 0.0 - - - - - - -
22/05:30am 12.3 E 5 6 - - 0.0 - - - - - - -
22/05:00am 12.3 E 5 6 - - 0.0 - - - - - - -
22/04:30am 12.4 ENE 5 6 - - 0.0 - - - - - - -
22/04:00am 13.5 ESE 5 6 - - 0.0 - - - - - - -
22/03:30am 14.1 SE 5 7 - - 0.0 - - - - - - -
22/03:00am 14.3 SE 5 7 - - 0.0 - - - - - - -
22/02:30am 14.0 SE 5 7 - - 0.0 - - - - - - -
22/02:00am 14.5 SE 6 9 - - 0.0 - - - - - - -
22/01:30am 14.6 SE 5 8 - - 0.0 - - - - - - -
22/01:00am 15.3 SE 6 9 - - 0.0 - - - - - - -
22/12:30am 15.6 SSE 7 11 - - 0.0 - - - - - - -
22/12:00am 16.2 SE 7 11 - - 0.0 - - - - - - -
 
Date/Time
WST
Temp
°C
Wind Pressure Rain since
9am
mm
Weather Cloud Vis
km
Sea
Height
m
Swell
Dir  Spd
kts
Gust
kts
hPa Trend Height
m
Period
s
Dir
21/11:30pm 16.4 SE 7 13 - - 0.0 - - - - - - -
21/11:00pm 16.9 SSE 9 14 - - 0.0 - - - - - - -
21/10:30pm 16.9 SSE 6 8 - - 0.0 - - - - - - -
21/10:00pm 17.4 SSE 7 11 - - 0.0 - - - - - - -
21/09:30pm 17.5 S 8 14 - - 0.0 - - - - - - -
21/09:00pm 17.7 SSW 11 17 - - 0.0 - - - - - - -
21/08:30pm 17.5 SSW 12 18 - - 0.0 - - - - - - -
21/08:00pm 17.4 SSW 12 18 - - 0.0 - - - - - - -
21/07:30pm 17.3 SSW 13 19 - - 0.0 - - - - - - -
21/07:00pm 17.6 S 11 21 - - 0.0 - - - - - - -
21/06:30pm 17.9 SSW 15 21 - - 0.0 - - - - - - -
21/06:00pm 18.3 SSW 14 20 - - 0.0 - - - - - - -
21/05:30pm 19.0 SSW 14 21 - - 0.0 - - - - - - -
21/05:00pm 19.2 SSW 15 21 - - 0.0 - - - - - - -
21/04:30pm 19.8 SSW 15 21 - - 0.0 - - - - - - -
21/04:11pm 19.6 SSW 15 26 - - 0.0 - - - - - - -
21/04:00pm 20.3 SSW 14 23 - - 0.0 - - - - - - -
21/03:30pm 20.3 SSW 15 23 - - 0.0 - - - - - - -
21/03:00pm 19.9 SSW 16 25 - - 0.0 - - - - - - -
21/02:30pm 20.7 SW 15 21 - - 0.0 - - - - - - -
21/02:00pm 20.5 SW 15 21 - - 0.0 - - - - - - -
21/01:30pm 21.2 SW 15 24 - - 0.0 - - - - - - -
21/01:00pm 20.6 SW 15 26 - - 0.0 - - - - - - -
21/12:56pm 21.0 SSW 15 26 - - 0.0 - - - - - - -
21/12:30pm 20.7 SSW 14 20 - - 0.0 - - - - - - -
21/12:00pm 20.1 SSW 13 20 - - 0.0 - - - - - - -
21/11:30am 20.4 SW 15 22 - - 0.0 - - - - - - -
21/11:00am 20.5 SW 15 25 - - 0.0 - - - - - - -
21/10:30am 19.9 SSW 15 25 - - 0.0 - - - - - - -
21/10:00am 19.4 SSW 16 25 - - 0.0 - - - - - - -
21/09:32am 19.4 SW 17 28 - - 0.0 - - - - - - -
21/09:30am 18.8 SW 17 25 - - 0.0 - - - - - - -
21/09:16am 18.6 SW 20 30 - - 0.0 - - - - - - -
21/09:00am 18.6 SW 18 28 - - 4.6 - - - - - - -
21/08:57am 18.6 SW 17 27 - - 4.6 - - - - - - -
21/08:30am 19.1 SW 17 25 - - 4.6 - - - - - - -
21/08:11am 18.5 SSW 17 28 - - 4.6 - - - - - - -
21/08:00am 18.3 SW 17 24 - - 4.6 - - - - - - -
21/07:49am 18.1 SW 16 27 - - 4.6 - - - - - - -
21/07:30am 17.5 SW 14 22 - - 4.6 - - - - - - -
21/07:00am 16.3 SW 15 23 - - 4.6 - - - - - - -
21/06:31am 16.7 SW 18 31 - - 4.6 - - - - - - -
21/06:30am 16.8 SW 17 26 - - 4.6 - - - - - - -
21/06:16am 17.3 WSW 17 27 - - 3.8 - - - - - - -
21/06:00am 19.0 WSW 17 24 - - 0.0 - - - - - - -
21/05:30am 18.6 W 15 22 - - 0.0 - - - - - - -
21/05:00am 19.0 WSW 13 20 - - 0.0 - - - - - - -
21/04:30am 18.5 W 13 18 - - 0.0 - - - - - - -
21/04:00am 18.4 W 13 18 - - 0.0 - - - - - - -
21/03:30am 18.6 W 13 19 - - 0.0 - - - - - - -
21/03:00am 18.7 W 13 19 - - 0.0 - - - - - - -
21/02:30am 19.0 WSW 11 17 - - 0.0 - - - - - - -
21/02:00am 18.8 SW 12 18 - - 0.0 - - - - - - -
21/01:30am 18.9 SW 12 18 - - 0.0 - - - - - - -
21/01:00am 19.0 WSW 11 15 - - 0.0 - - - - - - -
21/12:30am 18.7 SW 11 18 - - 0.0 - - - - - - -
21/12:00am 19.1 SW 11 17 - - 0.0 - - - - - - -
 
Date/Time
WST
Temp
°C
Wind Pressure Rain since
9am
mm
Weather Cloud Vis
km
Sea
Height
m
Swell
Dir  Spd
kts
Gust
kts
hPa Trend Height
m
Period
s
Dir
20/11:30pm 19.0 SW 11 16 - - 0.0 - - - - - - -
20/11:00pm 18.8 SW 10 13 - - 0.0 - - - - - - -
20/10:30pm 18.7 SW 9 13 - - 0.0 - - - - - - -
20/10:00pm 19.1 SW 10 16 - - 0.0 - - - - - - -
20/09:30pm 19.5 SW 13 19 - - 0.0 - - - - - - -
20/09:00pm 19.4 SW 15 22 - - 0.0 - - - - - - -
20/08:30pm 19.6 SW 14 19 - - 0.0 - - - - - - -
20/08:00pm 19.5 SSW 11 18 - - 0.0 - - - - - - -
20/07:30pm 19.6 SSW 13 18 - - 0.0 - - - - - - -
20/07:00pm 19.6 SW 11 18 - - 0.0 - - - - - - -
20/06:30pm 20.3 SW 13 20 - - 0.0 - - - - - - -
20/06:00pm 20.8 SW 14 21 - - 0.0 - - - - - - -

Other Formats:

Comma delimited format used in spreadsheet applications
http://www.bom.gov.au/fwo/IDW60701/IDW60701.94614.axf

JavaScript Object Notation format (JSON) in row-major order
http://www.bom.gov.au/fwo/IDW60701/IDW60701.94614.json